Time;durP1;ratioP1;P1;durP2;ratioP2;P2;SDS_P1;SDS_P2;PMS_P1;PMS_P2;Temp;Humidity;BMP_temperature;BMP_pressure;BME280_temperature;BME280_humidity;BME280_pressure;Samples;Min_cycle;Max_cycle;Signal;HPM_P1;HPM_P2
2023/05/12 00:02:13;;;;;;;2.87;2.67;;;;;;;;;;8156040;28;20035;-72
2023/05/12 00:06:13;;;;;;;2.55;2.35;;;;;;;;;;8153485;29;20290;-72
2023/05/12 00:10:13;;;;;;;2.70;2.50;;;;;;;;;;8154474;29;20038;-72
2023/05/12 00:14:14;;;;;;;3.53;2.30;;;;;;;;;;8156315;28;20039;-72
2023/05/12 00:18:14;;;;;;;3.20;2.30;;;;;;;;;;8158093;28;20046;-72
2023/05/12 00:22:15;;;;;;;2.50;2.20;;;;;;;;;;8156041;28;20554;-72
2023/05/12 00:26:16;;;;;;;2.55;2.35;;;;;;;;;;8158080;28;20676;-72
2023/05/12 00:30:16;;;;;;;2.88;2.67;;;;;;;;;;8163364;28;20067;-72
2023/05/12 00:34:16;;;;;;;2.35;2.15;;;;;;;;;;8155586;28;20023;-72
2023/05/12 00:38:17;;;;;;;3.17;2.72;;;;;;;;;;8154277;29;20158;-72
2023/05/12 00:42:17;;;;;;;3.33;3.03;;;;;;;;;;8154087;28;21000;-72
2023/05/12 00:46:17;;;;;;;3.00;2.80;;;;;;;;;;8157845;28;20058;-72
2023/05/12 00:50:17;;;;;;;3.00;2.70;;;;;;;;;;8153107;28;21102;-72
2023/05/12 00:54:18;;;;;;;3.25;2.95;;;;;;;;;;8152707;28;20564;-72
2023/05/12 00:58:18;;;;;;;5.68;2.63;;;;;;;;;;8161460;28;20023;-72
2023/05/12 01:02:18;;;;;;;2.85;2.65;;;;;;;;;;8151793;28;20078;-72
2023/05/12 01:06:23;;;;;;;3.03;2.73;;;;;;;;;;8151750;28;20042;-72
2023/05/12 01:10:23;;;;;;;2.88;2.60;;;;;;;;;;8160988;28;20906;-72
2023/05/12 01:14:23;;;;;;;2.60;2.40;;;;;;;;;;8163808;28;20019;-73
2023/05/12 01:18:26;;;;;;;2.72;2.53;;;;;;;;;;8163276;28;20130;-72
2023/05/12 01:22:30;;;;;;;3.55;2.47;;;;;;;;;;8158746;28;20031;-72
2023/05/12 01:26:31;;;;;;;;;;;;;;;;;;8154333;28;21572;-72
2023/05/12 01:30:31;;;;;;;2.28;2.08;;;;;;;;;;8151584;28;19926;-72
2023/05/12 01:34:32;;;;;;;3.70;2.10;;;;;;;;;;8156333;28;20698;-72
2023/05/12 01:38:32;;;;;;;3.20;2.90;;;;;;;;;;8162124;28;20285;-72
2023/05/12 01:42:33;;;;;;;3.40;3.10;;;;;;;;;;8163236;28;20033;-72
2023/05/12 01:46:33;;;;;;;3.88;3.50;;;;;;;;;;8166228;28;20034;-73
2023/05/12 01:50:33;;;;;;;3.60;2.85;;;;;;;;;;8160896;28;20145;-72
2023/05/12 01:54:33;;;;;;;3.20;2.90;;;;;;;;;;8157564;28;20015;-72
2023/05/12 01:58:34;;;;;;;4.00;3.50;;;;;;;;;;8157308;28;20935;-72
2023/05/12 02:02:34;;;;;;;4.07;2.88;;;;;;;;;;8176631;28;20027;-72
2023/05/12 02:06:34;;;;;;;3.17;2.83;;;;;;;;;;8163656;28;20090;-72
2023/05/12 02:10:34;;;;;;;2.92;2.63;;;;;;;;;;8158478;28;20069;-73
2023/05/12 02:14:35;;;;;;;2.67;2.47;;;;;;;;;;8165866;28;20027;-72
2023/05/12 02:18:35;;;;;;;5.20;2.58;;;;;;;;;;8165349;28;21024;-72
2023/05/12 02:22:35;;;;;;;5.75;3.10;;;;;;;;;;8157872;28;20034;-72
2023/05/12 02:26:35;;;;;;;4.15;2.70;;;;;;;;;;8157555;28;20061;-72
2023/05/12 02:30:36;;;;;;;4.40;3.10;;;;;;;;;;8158798;28;20081;-72
2023/05/12 02:34:36;;;;;;;4.05;2.67;;;;;;;;;;8160969;28;20020;-72
2023/05/12 02:38:36;;;;;;;3.10;2.83;;;;;;;;;;8157285;28;20039;-72
2023/05/12 02:42:37;;;;;;;3.08;2.88;;;;;;;;;;8158396;28;20478;-72
2023/05/12 02:46:37;;;;;;;6.10;3.67;;;;;;;;;;8175611;28;20081;-72
2023/05/12 02:50:38;;;;;;;3.03;2.83;;;;;;;;;;8199327;28;20551;-72
2023/05/12 02:54:38;;;;;;;3.30;3.00;;;;;;;;;;8190048;28;20054;-72
2023/05/12 02:58:38;;;;;;;3.70;3.40;;;;;;;;;;8186057;28;20682;-72
2023/05/12 03:02:39;;;;;;;3.25;2.95;;;;;;;;;;8168852;28;20066;-73
2023/05/12 03:06:39;;;;;;;2.88;2.67;;;;;;;;;;8156307;28;20062;-73
2023/05/12 03:10:39;;;;;;;3.40;3.10;;;;;;;;;;8155129;28;20511;-73
2023/05/12 03:14:40;;;;;;;4.72;2.70;;;;;;;;;;8154757;29;20027;-72
2023/05/12 03:18:40;;;;;;;4.97;3.22;;;;;;;;;;8156040;28;20851;-72
2023/05/12 03:22:40;;;;;;;6.13;3.53;;;;;;;;;;8163166;28;20031;-72
2023/05/12 03:26:40;;;;;;;4.10;3.10;;;;;;;;;;8165104;28;20571;-72
2023/05/12 03:30:41;;;;;;;4.90;3.50;;;;;;;;;;8162600;28;20165;-72
2023/05/12 03:34:41;;;;;;;5.65;3.88;;;;;;;;;;8156907;28;20061;-72
2023/05/12 03:38:41;;;;;;;5.53;3.53;;;;;;;;;;8152071;28;20086;-72
2023/05/12 03:42:41;;;;;;;4.30;3.83;;;;;;;;;;8153397;28;20537;-72
2023/05/12 03:46:41;;;;;;;5.03;4.38;;;;;;;;;;8153904;28;20032;-72
2023/05/12 03:50:41;;;;;;;4.90;4.40;;;;;;;;;;8163481;28;20031;-72
2023/05/12 03:54:42;;;;;;;6.35;4.03;;;;;;;;;;8155821;28;20396;-72
2023/05/12 03:58:42;;;;;;;4.18;3.88;;;;;;;;;;8152090;28;20023;-73
2023/05/12 04:02:42;;;;;;;5.97;5.32;;;;;;;;;;8152695;28;20441;-72
2023/05/12 04:06:42;;;;;;;6.38;4.63;;;;;;;;;;8154585;28;20054;-72
2023/05/12 04:10:42;;;;;;;6.80;4.78;;;;;;;;;;8157798;28;20031;-72
2023/05/12 04:14:43;;;;;;;4.88;4.35;;;;;;;;;;8163148;28;20880;-72
2023/05/12 04:18:43;;;;;;;6.25;4.85;;;;;;;;;;8158155;28;20031;-72
2023/05/12 04:22:43;;;;;;;5.82;5.22;;;;;;;;;;8150503;29;20089;-72
2023/05/12 04:26:43;;;;;;;6.03;5.43;;;;;;;;;;8156169;28;20023;-72
2023/05/12 04:30:43;;;;;;;7.25;5.60;;;;;;;;;;8152694;28;20271;-72
2023/05/12 04:34:43;;;;;;;6.40;5.47;;;;;;;;;;8163010;28;20133;-72
2023/05/12 04:38:44;;;;;;;5.22;4.72;;;;;;;;;;8157855;28;20046;-71
2023/05/12 04:42:44;;;;;;;7.00;5.10;;;;;;;;;;8149784;28;20333;-71
2023/05/12 04:46:44;;;;;;;4.95;4.20;;;;;;;;;;8147658;28;20035;-71
2023/05/12 04:50:47;;;;;;;6.22;5.10;;;;;;;;;;8153501;28;20170;-72
2023/05/12 04:54:47;;;;;;;6.30;4.97;;;;;;;;;;8157485;28;20436;-71
2023/05/12 04:58:47;;;;;;;5.70;5.10;;;;;;;;;;8149981;28;20027;-71
2023/05/12 05:02:47;;;;;;;5.70;5.13;;;;;;;;;;8173618;28;20070;-72
2023/05/12 05:06:47;;;;;;;13.82;6.43;;;;;;;;;;8197580;28;20073;-71
2023/05/12 05:10:47;;;;;;;8.27;6.07;;;;;;;;;;8181502;28;20212;-71
2023/05/12 05:14:48;;;;;;;7.30;5.80;;;;;;;;;;8180970;28;20162;-71
2023/05/12 05:18:48;;;;;;;5.90;5.30;;;;;;;;;;8153396;28;20046;-71
2023/05/12 05:22:48;;;;;;;8.15;6.35;;;;;;;;;;8170019;28;20082;-71
2023/05/12 05:26:48;;;;;;;6.25;5.65;;;;;;;;;;8169256;29;20038;-71
2023/05/12 05:30:48;;;;;;;6.55;5.80;;;;;;;;;;8163007;28;20483;-71
2023/05/12 05:34:49;;;;;;;10.65;7.30;;;;;;;;;;8195740;28;20034;-72
2023/05/12 05:38:49;;;;;;;8.15;6.63;;;;;;;;;;8190262;28;20039;-71
2023/05/12 05:42:49;;;;;;;8.40;7.30;;;;;;;;;;8201645;28;20026;-72
2023/05/12 05:46:49;;;;;;;9.25;7.50;;;;;;;;;;8201758;28;20130;-71
2023/05/12 05:50:50;;;;;;;7.53;6.75;;;;;;;;;;8198958;28;20140;-72
2023/05/12 05:54:51;;;;;;;7.45;6.15;;;;;;;;;;8189280;28;20090;-71
2023/05/12 05:58:51;;;;;;;6.75;6.07;;;;;;;;;;8188143;28;20026;-72
2023/05/12 06:02:51;;;;;;;7.28;6.10;;;;;;;;;;8188049;28;20488;-72
2023/05/12 06:06:51;;;;;;;8.27;6.68;;;;;;;;;;8191801;28;20027;-72
2023/05/12 06:10:51;;;;;;;6.90;6.20;;;;;;;;;;8191244;28;20027;-71
2023/05/12 06:14:51;;;;;;;10.68;7.75;;;;;;;;;;8195544;28;20832;-72
2023/05/12 06:18:52;;;;;;;8.05;7.07;;;;;;;;;;8199644;28;20027;-72
2023/05/12 06:22:52;;;;;;;8.63;7.73;;;;;;;;;;8189346;28;20472;-72
2023/05/12 06:26:52;;;;;;;8.45;7.40;;;;;;;;;;8195311;28;20619;-72
2023/05/12 06:30:52;;;;;;;9.00;7.32;;;;;;;;;;8181879;28;20066;-72
2023/05/12 06:34:52;;;;;;;7.90;7.10;;;;;;;;;;8174104;28;20019;-72
2023/05/12 06:38:53;;;;;;;9.50;7.55;;;;;;;;;;8157823;28;20027;-72
2023/05/12 06:42:53;;;;;;;7.18;6.43;;;;;;;;;;8161427;28;20847;-72
2023/05/12 06:46:53;;;;;;;6.22;4.97;;;;;;;;;;8172042;28;21239;-72
2023/05/12 06:50:53;;;;;;;4.50;3.97;;;;;;;;;;8190959;28;20027;-72
2023/05/12 06:54:53;;;;;;;4.90;4.20;;;;;;;;;;8190483;28;20022;-72
2023/05/12 06:59:01;;;;;;;4.90;4.40;;;;;;;;;;8186957;28;20053;-71
2023/05/12 07:03:01;;;;;;;4.63;3.85;;;;;;;;;;8192911;28;20046;-72
2023/05/12 07:07:01;;;;;;;4.78;4.32;;;;;;;;;;8195962;28;20015;-72
2023/05/12 07:11:02;;;;;;;5.45;4.15;;;;;;;;;;8187183;28;20027;-72
2023/05/12 07:15:03;;;;;;;5.70;3.67;;;;;;;;;;8187402;28;20057;-72
2023/05/12 07:19:05;;;;;;;3.88;3.47;;;;;;;;;;8188126;28;20082;-72
2023/05/12 07:23:05;;;;;;;3.28;2.60;;;;;;;;;;8188341;28;20089;-72
2023/05/12 07:27:05;;;;;;;2.60;2.40;;;;;;;;;;8188044;28;20089;-72
2023/05/12 07:31:06;;;;;;;2.45;2.20;;;;;;;;;;8178092;28;20091;-72
2023/05/12 07:35:06;;;;;;;2.90;1.90;;;;;;;;;;8156631;29;20027;-72
2023/05/12 07:39:06;;;;;;;4.22;2.20;;;;;;;;;;8164613;28;20035;-72
2023/05/12 07:43:07;;;;;;;2.10;2.00;;;;;;;;;;8156479;28;20031;-72
2023/05/12 07:47:07;;;;;;;3.80;2.10;;;;;;;;;;8155183;28;20039;-72
2023/05/12 07:51:07;;;;;;;2.80;2.42;;;;;;;;;;8157168;28;20023;-72
2023/05/12 07:55:08;;;;;;;2.58;2.38;;;;;;;;;;8153878;28;20792;-72
2023/05/12 07:59:09;;;;;;;3.92;3.05;;;;;;;;;;8168386;28;20319;-72
2023/05/12 08:03:09;;;;;;;2.95;2.75;;;;;;;;;;8155572;28;20039;-73
2023/05/12 08:07:10;;;;;;;3.13;2.92;;;;;;;;;;8154056;28;20790;-72
2023/05/12 08:11:10;;;;;;;4.00;2.88;;;;;;;;;;8157044;28;20117;-72
2023/05/12 08:15:11;;;;;;;2.90;2.13;;;;;;;;;;8177200;28;20031;-72
2023/05/12 08:19:11;;;;;;;4.57;2.95;;;;;;;;;;8153894;28;20068;-72
2023/05/12 08:23:11;;;;;;;5.80;2.70;;;;;;;;;;8155724;28;20147;-72
2023/05/12 08:27:12;;;;;;;3.42;3.13;;;;;;;;;;8156302;28;20027;-73
2023/05/12 08:31:12;;;;;;;3.45;3.08;;;;;;;;;;8160964;28;20043;-72
2023/05/12 08:35:12;;;;;;;5.85;4.47;;;;;;;;;;8165173;28;20054;-72
2023/05/12 08:39:12;;;;;;;8.27;4.00;;;;;;;;;;8152484;28;20077;-72
2023/05/12 08:43:21;;;;;;;4.45;4.05;;;;;;;;;;8151577;28;20042;-72
2023/05/12 08:47:24;;;;;;;6.35;4.18;;;;;;;;;;8156802;28;20034;-72
2023/05/12 08:51:24;;;;;;;5.57;4.18;;;;;;;;;;8160263;28;20029;-72
2023/05/12 08:55:25;;;;;;;4.25;3.83;;;;;;;;;;8156996;28;20050;-72
2023/05/12 08:59:25;;;;;;;3.78;3.47;;;;;;;;;;8149229;28;20023;-73
2023/05/12 09:03:26;;;;;;;3.83;3.33;;;;;;;;;;8176558;28;20042;-72
2023/05/12 09:07:26;;;;;;;3.20;3.00;;;;;;;;;;8185171;28;20114;-72
2023/05/12 09:11:26;;;;;;;3.33;3.13;;;;;;;;;;8181764;28;20027;-72
2023/05/12 09:15:30;;;;;;;3.83;3.53;;;;;;;;;;8182754;28;20748;-72
2023/05/12 09:19:31;;;;;;;5.40;3.45;;;;;;;;;;8163813;28;20492;-72
2023/05/12 09:23:31;;;;;;;3.45;3.17;;;;;;;;;;8155093;29;20027;-72
2023/05/12 09:27:31;;;;;;;3.75;3.45;;;;;;;;;;8151631;28;20761;-72
2023/05/12 09:31:31;;;;;;;3.35;3.05;;;;;;;;;;8156695;28;20043;-73
2023/05/12 09:35:36;;;;;;;3.40;3.10;;;;;;;;;;8152867;28;20034;-72
2023/05/12 09:39:36;;;;;;;4.80;4.00;;;;;;;;;;8149507;28;20218;-73
2023/05/12 09:43:43;;;;;;;4.47;3.90;;;;;;;;;;8152157;28;20206;-73
2023/05/12 09:47:44;;;;;;;3.92;3.63;;;;;;;;;;8150887;28;20036;-72
2023/05/12 09:51:44;;;;;;;5.90;3.63;;;;;;;;;;8161653;28;20027;-73
2023/05/12 09:55:45;;;;;;;5.27;4.03;;;;;;;;;;8148105;28;20031;-72
2023/05/12 09:59:46;;;;;;;4.47;4.07;;;;;;;;;;8160050;29;20059;-72
2023/05/12 10:03:56;;;;;;;4.70;3.58;;;;;;;;;;8154534;28;20031;-72
2023/05/12 10:07:59;;;;;;;5.60;3.80;;;;;;;;;;8153724;28;20523;-72
2023/05/12 10:12:01;;;;;;;7.50;3.87;;;;;;;;;;8168951;28;20031;-72
2023/05/12 10:16:02;;;;;;;3.80;3.50;;;;;;;;;;8160399;28;20821;-72
2023/05/12 10:20:05;;;;;;;4.90;3.88;;;;;;;;;;8187670;28;20572;-72
2023/05/12 10:24:06;;;;;;;5.50;3.33;;;;;;;;;;8196871;28;20058;-72
2023/05/12 10:28:07;;;;;;;4.53;3.53;;;;;;;;;;8194945;28;20033;-72
2023/05/12 10:32:07;;;;;;;5.00;3.47;;;;;;;;;;8171589;28;20050;-72
2023/05/12 10:36:17;;;;;;;5.77;4.00;;;;;;;;;;8160844;28;20034;-73
2023/05/12 10:40:24;;;;;;;3.78;3.42;;;;;;;;;;8167418;28;20039;-73
2023/05/12 10:44:28;;;;;;;4.53;3.50;;;;;;;;;;8156484;29;20041;-73
2023/05/12 10:48:28;;;;;;;5.70;3.60;;;;;;;;;;8154037;28;20101;-73
2023/05/12 10:52:28;;;;;;;3.45;3.15;;;;;;;;;;8159353;28;20058;-74
2023/05/12 10:56:29;;;;;;;4.00;3.60;;;;;;;;;;8162632;28;20027;-73
2023/05/12 11:00:31;;;;;;;5.15;3.33;;;;;;;;;;8158869;28;20042;-73
2023/05/12 11:04:34;;;;;;;3.97;3.63;;;;;;;;;;8168187;28;20027;-72
2023/05/12 11:08:35;;;;;;;9.60;3.90;;;;;;;;;;8163189;28;20034;-73
2023/05/12 11:12:36;;;;;;;4.63;3.30;;;;;;;;;;8160380;28;20227;-73
2023/05/12 11:16:40;;;;;;;5.47;3.55;;;;;;;;;;8154868;28;20038;-73
2023/05/12 11:20:40;;;;;;;3.95;3.30;;;;;;;;;;8153597;29;20027;-73
2023/05/12 11:24:41;;;;;;;4.45;4.05;;;;;;;;;;8155695;28;20137;-73
2023/05/12 11:28:41;;;;;;;5.28;3.38;;;;;;;;;;8166495;29;20031;-72
2023/05/12 11:32:42;;;;;;;3.80;3.40;;;;;;;;;;8169069;28;20842;-72
2023/05/12 11:36:43;;;;;;;5.03;3.10;;;;;;;;;;8187883;28;20971;-72
2023/05/12 11:40:43;;;;;;;3.85;2.78;;;;;;;;;;8172212;28;20016;-73
2023/05/12 11:44:47;;;;;;;3.83;3.42;;;;;;;;;;8170300;28;20062;-72
2023/05/12 11:48:53;;;;;;;3.67;3.20;;;;;;;;;;8175982;28;20043;-72
2023/05/12 11:52:53;;;;;;;3.80;3.45;;;;;;;;;;8179443;29;20031;-72
2023/05/12 11:56:54;;;;;;;5.50;3.55;;;;;;;;;;8168497;28;20023;-72
2023/05/12 12:00:55;;;;;;;4.07;2.95;;;;;;;;;;8164437;28;20062;-72
2023/05/12 12:04:56;;;;;;;5.05;3.10;;;;;;;;;;8169795;29;20050;-73
2023/05/12 12:08:58;;;;;;;4.83;3.10;;;;;;;;;;8160006;28;20031;-73
2023/05/12 12:13:00;;;;;;;3.50;3.20;;;;;;;;;;8177436;28;20059;-73
2023/05/12 12:17:01;;;;;;;3.75;2.75;;;;;;;;;;8167049;28;20538;-72
2023/05/12 12:21:01;;;;;;;4.05;3.13;;;;;;;;;;8171461;28;20050;-72
2023/05/12 12:25:01;;;;;;;4.50;3.20;;;;;;;;;;8164085;28;20035;-73
2023/05/12 12:29:02;;;;;;;4.03;3.00;;;;;;;;;;8159421;28;20027;-72
2023/05/12 12:33:02;;;;;;;5.90;3.30;;;;;;;;;;8186570;28;20050;-72
2023/05/12 12:37:02;;;;;;;6.55;3.67;;;;;;;;;;8177522;28;20031;-73
2023/05/12 12:41:04;;;;;;;4.43;3.58;;;;;;;;;;8172567;28;20110;-72
2023/05/12 12:45:04;;;;;;;4.45;3.50;;;;;;;;;;8184801;28;20034;-73
2023/05/12 12:49:04;;;;;;;5.78;3.35;;;;;;;;;;8188149;28;20154;-73
2023/05/12 12:53:05;;;;;;;4.45;3.30;;;;;;;;;;8176392;28;21087;-72
2023/05/12 12:57:05;;;;;;;4.73;3.30;;;;;;;;;;8172686;28;20050;-73
2023/05/12 13:01:05;;;;;;;5.30;3.00;;;;;;;;;;8161185;28;20793;-72
2023/05/12 13:05:06;;;;;;;5.57;3.15;;;;;;;;;;8160569;28;20757;-72
2023/05/12 13:09:06;;;;;;;3.65;3.08;;;;;;;;;;8170301;28;20106;-73
2023/05/12 13:13:06;;;;;;;5.00;2.90;;;;;;;;;;8175045;28;20025;-73
2023/05/12 13:17:07;;;;;;;2.87;2.67;;;;;;;;;;8175057;28;20149;-73
2023/05/12 13:21:07;;;;;;;3.23;2.80;;;;;;;;;;8158794;28;20694;-72
2023/05/12 13:25:07;;;;;;;3.75;3.03;;;;;;;;;;8162554;28;20266;-73
2023/05/12 13:29:07;;;;;;;4.75;2.90;;;;;;;;;;8158771;28;20145;-73
2023/05/12 13:33:08;;;;;;;6.40;2.70;;;;;;;;;;8164025;28;20197;-73
2023/05/12 13:37:08;;;;;;;3.63;2.40;;;;;;;;;;8174293;28;20033;-72
2023/05/12 13:41:08;;;;;;;2.20;2.00;;;;;;;;;;8183207;28;20031;-73
2023/05/12 13:45:09;;;;;;;4.30;2.17;;;;;;;;;;8162766;28;20283;-73
2023/05/12 13:49:09;;;;;;;2.38;2.00;;;;;;;;;;8163224;29;20281;-73
2023/05/12 13:53:11;;;;;;;2.35;2.08;;;;;;;;;;8174928;28;20027;-72
2023/05/12 13:57:11;;;;;;;3.67;1.92;;;;;;;;;;8177549;28;20794;-73
2023/05/12 14:01:11;;;;;;;5.00;2.00;;;;;;;;;;8154240;28;20118;-73
2023/05/12 14:05:11;;;;;;;3.20;2.03;;;;;;;;;;8162122;28;20534;-73
2023/05/12 14:09:13;;;;;;;2.42;1.98;;;;;;;;;;8154608;28;20038;-73
2023/05/12 14:13:13;;;;;;;4.57;1.92;;;;;;;;;;8157363;28;20477;-73
2023/05/12 14:17:13;;;;;;;2.10;1.90;;;;;;;;;;8156252;28;20043;-73
2023/05/12 14:21:13;;;;;;;3.80;1.77;;;;;;;;;;8157068;29;20130;-73
2023/05/12 14:25:14;;;;;;;2.25;1.67;;;;;;;;;;8159070;28;20086;-73
2023/05/12 14:29:15;;;;;;;3.65;1.60;;;;;;;;;;8157853;28;20554;-73
2023/05/12 14:33:15;;;;;;;2.33;1.70;;;;;;;;;;8189055;28;20053;-73
2023/05/12 14:37:15;;;;;;;3.22;2.03;;;;;;;;;;8193864;28;20761;-73
2023/05/12 14:41:15;;;;;;;4.33;1.60;;;;;;;;;;8189217;28;20763;-73
2023/05/12 14:45:16;;;;;;;1.90;1.47;;;;;;;;;;8195963;28;20317;-74
2023/05/12 14:49:19;;;;;;;1.67;1.40;;;;;;;;;;8190665;28;20266;-73
2023/05/12 14:53:20;;;;;;;1.40;1.30;;;;;;;;;;8202493;28;20030;-73
2023/05/12 14:57:20;;;;;;;1.40;1.30;;;;;;;;;;8190606;28;20118;-73
2023/05/12 15:01:20;;;;;;;1.35;1.23;;;;;;;;;;8189119;28;20611;-73
2023/05/12 15:05:21;;;;;;;1.10;1.10;;;;;;;;;;8190503;28;20081;-73
2023/05/12 15:09:21;;;;;;;1.17;1.00;;;;;;;;;;8188479;28;20074;-73
2023/05/12 15:13:21;;;;;;;2.03;1.13;;;;;;;;;;8186986;28;20544;-73
2023/05/12 15:17:22;;;;;;;1.20;1.10;;;;;;;;;;8175359;28;20087;-73
2023/05/12 15:21:22;;;;;;;1.30;1.10;;;;;;;;;;8157801;28;20313;-73
2023/05/12 15:25:22;;;;;;;1.63;1.02;;;;;;;;;;8154624;29;20953;-73
2023/05/12 15:29:22;;;;;;;1.03;0.93;;;;;;;;;;8156144;28;20043;-74
2023/05/12 15:33:23;;;;;;;1.00;1.00;;;;;;;;;;8158663;28;20078;-73
2023/05/12 15:37:23;;;;;;;1.73;1.58;;;;;;;;;;8155820;28;20041;-73
2023/05/12 15:41:23;;;;;;;1.27;1.10;;;;;;;;;;8155320;28;20038;-73
2023/05/12 15:45:24;;;;;;;0.90;0.90;;;;;;;;;;8155026;28;20047;-73
2023/05/12 15:49:24;;;;;;;2.38;1.10;;;;;;;;;;8151372;28;20023;-73
2023/05/12 15:53:24;;;;;;;0.97;0.97;;;;;;;;;;8156962;28;20030;-73
2023/05/12 15:57:25;;;;;;;1.10;1.00;;;;;;;;;;8156397;28;21183;-73
2023/05/12 16:01:25;;;;;;;2.60;1.17;;;;;;;;;;8153807;28;20039;-73
2023/05/12 16:05:25;;;;;;;1.45;1.00;;;;;;;;;;8156701;28;20787;-74
2023/05/12 16:09:25;;;;;;;1.70;0.83;;;;;;;;;;8163381;28;20050;-73
2023/05/12 16:13:26;;;;;;;3.83;1.10;;;;;;;;;;8164972;28;20285;-73
2023/05/12 16:17:26;;;;;;;1.77;1.23;;;;;;;;;;8173407;28;20031;-74
2023/05/12 16:21:26;;;;;;;1.10;1.00;;;;;;;;;;8187588;28;20031;-73
2023/05/12 16:25:26;;;;;;;1.17;1.00;;;;;;;;;;8187375;28;20038;-73
2023/05/12 16:29:30;;;;;;;2.15;1.10;;;;;;;;;;8195570;28;20027;-73
2023/05/12 16:33:30;;;;;;;2.65;1.10;;;;;;;;;;8160060;28;21105;-73
2023/05/12 16:37:31;;;;;;;1.33;1.20;;;;;;;;;;8163340;28;20027;-73
2023/05/12 16:41:31;;;;;;;1.25;1.15;;;;;;;;;;8153519;28;20090;-73
2023/05/12 16:45:31;;;;;;;1.17;1.10;;;;;;;;;;8157229;28;20050;-73
2023/05/12 16:49:31;;;;;;;2.65;1.10;;;;;;;;;;8151513;28;20947;-73
2023/05/12 16:53:32;;;;;;;1.33;1.20;;;;;;;;;;8161726;28;20027;-73
2023/05/12 16:57:32;;;;;;;1.95;1.20;;;;;;;;;;8155180;28;20034;-73
2023/05/12 17:01:34;;;;;;;2.25;1.10;;;;;;;;;;8156663;28;20047;-73
2023/05/12 17:05:36;;;;;;;1.42;1.20;;;;;;;;;;8165464;28;20034;-73
2023/05/12 17:09:36;;;;;;;6.15;2.60;;;;;;;;;;8151285;29;20069;-73
2023/05/12 17:13:37;;;;;;;4.25;2.38;;;;;;;;;;8151931;28;20031;-73
2023/05/12 17:17:37;;;;;;;1.75;1.60;;;;;;;;;;8185276;28;20027;-73
2023/05/12 17:21:37;;;;;;;2.05;1.25;;;;;;;;;;8194058;28;20144;-77
2023/05/12 17:25:38;;;;;;;2.47;1.10;;;;;;;;;;8196745;28;20214;-73
2023/05/12 17:29:38;;;;;;;1.23;1.13;;;;;;;;;;8201475;28;20061;-73
2023/05/12 17:33:38;;;;;;;1.83;1.27;;;;;;;;;;8183042;28;20047;-73
2023/05/12 17:37:39;;;;;;;1.00;1.00;;;;;;;;;;8163111;28;20031;-74
2023/05/12 17:41:39;;;;;;;2.00;1.00;;;;;;;;;;8165074;28;20031;-73
2023/05/12 17:45:39;;;;;;;3.47;1.20;;;;;;;;;;8165786;28;20341;-74
2023/05/12 17:49:40;;;;;;;1.20;1.20;;;;;;;;;;8173581;28;20031;-73
2023/05/12 17:53:40;;;;;;;1.10;1.10;;;;;;;;;;8161006;28;20031;-73
2023/05/12 17:57:40;;;;;;;2.22;1.08;;;;;;;;;;8164409;28;20066;-73
2023/05/12 18:01:41;;;;;;;1.00;0.93;;;;;;;;;;8176214;28;20600;-73
2023/05/12 18:05:41;;;;;;;2.45;1.15;;;;;;;;;;8197405;28;20034;-73
2023/05/12 18:09:41;;;;;;;1.38;1.20;;;;;;;;;;8193897;28;20732;-73
2023/05/12 18:13:41;;;;;;;0.90;0.90;;;;;;;;;;8197456;28;20035;-72
2023/05/12 18:17:41;;;;;;;1.10;1.10;;;;;;;;;;8179026;28;20119;-73
2023/05/12 18:21:42;;;;;;;1.00;1.00;;;;;;;;;;8163584;28;20947;-72
2023/05/12 18:25:42;;;;;;;1.20;1.10;;;;;;;;;;8161351;28;20780;-72
2023/05/12 18:29:42;;;;;;;1.10;1.00;;;;;;;;;;8158451;28;20472;-72
2023/05/12 18:33:44;;;;;;;1.80;0.90;;;;;;;;;;8159264;28;20035;-73
2023/05/12 18:37:44;;;;;;;0.90;0.90;;;;;;;;;;8159784;28;20282;-73
2023/05/12 18:41:45;;;;;;;1.38;0.80;;;;;;;;;;8157627;28;20035;-73
2023/05/12 18:45:45;;;;;;;1.60;0.80;;;;;;;;;;8164502;28;20038;-73
2023/05/12 18:49:45;;;;;;;1.35;0.90;;;;;;;;;;8190912;28;20800;-72
2023/05/12 18:53:46;;;;;;;1.17;1.05;;;;;;;;;;8187953;28;20476;-73
2023/05/12 18:57:47;;;;;;;0.90;0.90;;;;;;;;;;8196864;28;20042;-73
2023/05/12 19:01:47;;;;;;;1.23;0.90;;;;;;;;;;8185745;28;20568;-73
2023/05/12 19:05:47;;;;;;;0.90;0.90;;;;;;;;;;8156964;28;20058;-73
2023/05/12 19:09:47;;;;;;;1.47;0.90;;;;;;;;;;8162212;28;20035;-73
2023/05/12 19:13:49;;;;;;;0.93;0.93;;;;;;;;;;8159419;28;21201;-73
2023/05/12 19:17:49;;;;;;;0.95;0.95;;;;;;;;;;8159459;28;20187;-73
2023/05/12 19:21:50;;;;;;;1.23;0.90;;;;;;;;;;8156900;28;20166;-73
2023/05/12 19:25:50;;;;;;;1.10;1.00;;;;;;;;;;8158900;28;20031;-72
2023/05/12 19:29:50;;;;;;;1.73;0.80;;;;;;;;;;8167718;28;20743;-73
2023/05/12 19:33:51;;;;;;;1.17;1.00;;;;;;;;;;8159815;28;20089;-72
2023/05/12 19:37:51;;;;;;;1.40;1.00;;;;;;;;;;8159721;28;20333;-73
2023/05/12 19:41:51;;;;;;;0.90;0.90;;;;;;;;;;8155975;28;20063;-73
2023/05/12 19:45:52;;;;;;;1.25;0.90;;;;;;;;;;8155600;28;20039;-73
2023/05/12 19:49:53;;;;;;;0.85;0.85;;;;;;;;;;8163127;28;20035;-72
2023/05/12 19:53:53;;;;;;;1.75;0.90;;;;;;;;;;8167929;28;20061;-72
2023/05/12 19:57:53;;;;;;;1.00;1.00;;;;;;;;;;8163890;28;20503;-71
2023/05/12 20:01:53;;;;;;;0.90;0.90;;;;;;;;;;8169894;28;20594;-71
2023/05/12 20:05:54;;;;;;;0.90;0.90;;;;;;;;;;8198020;28;20023;-71
2023/05/12 20:09:54;;;;;;;1.65;1.00;;;;;;;;;;8179087;28;20245;-72
2023/05/12 20:13:55;;;;;;;1.10;1.00;;;;;;;;;;8181983;28;20030;-71
2023/05/12 20:17:55;;;;;;;1.13;0.95;;;;;;;;;;8161584;28;20874;-71
2023/05/12 20:21:55;;;;;;;3.28;0.90;;;;;;;;;;8150710;28;20027;-72
2023/05/12 20:25:56;;;;;;;0.97;0.97;;;;;;;;;;8149883;28;20699;-71
2023/05/12 20:29:56;;;;;;;0.80;0.80;;;;;;;;;;8151324;29;21101;-71
2023/05/12 20:33:56;;;;;;;3.13;1.00;;;;;;;;;;8155205;28;20031;-72
2023/05/12 20:37:56;;;;;;;1.05;0.98;;;;;;;;;;8150098;28;20055;-72
2023/05/12 20:41:58;;;;;;;1.10;1.00;;;;;;;;;;8149835;28;20058;-72
2023/05/12 20:46:02;;;;;;;1.20;1.10;;;;;;;;;;8157817;28;20161;-71
2023/05/12 20:50:04;;;;;;;1.02;1.02;;;;;;;;;;8170436;28;20763;-72
2023/05/12 20:54:04;;;;;;;1.20;1.10;;;;;;;;;;8182905;28;20018;-72
2023/05/12 20:58:05;;;;;;;1.23;1.23;;;;;;;;;;8176981;28;20019;-72
2023/05/12 21:02:05;;;;;;;1.10;1.00;;;;;;;;;;8163101;28;20602;-72
2023/05/12 21:06:05;;;;;;;1.15;1.15;;;;;;;;;;8149704;29;20114;-72
2023/05/12 21:10:06;;;;;;;1.30;1.20;;;;;;;;;;8151661;29;20015;-71
2023/05/12 21:14:06;;;;;;;1.52;1.20;;;;;;;;;;8155976;28;20035;-72
2023/05/12 21:18:07;;;;;;;6.20;3.20;;;;;;;;;;8158287;28;20149;-72
2023/05/12 21:22:09;;;;;;;4.47;2.60;;;;;;;;;;8154567;29;20998;-72
2023/05/12 21:26:09;;;;;;;5.28;2.75;;;;;;;;;;8151241;29;20040;-72
2023/05/12 21:30:10;;;;;;;2.87;1.97;;;;;;;;;;8148864;28;20024;-73
2023/05/12 21:34:10;;;;;;;6.05;1.60;;;;;;;;;;8165666;28;20038;-72
2023/05/12 21:38:10;;;;;;;1.50;1.40;;;;;;;;;;8154009;28;20019;-72
2023/05/12 21:42:10;;;;;;;2.95;1.40;;;;;;;;;;8150024;29;20042;-72
2023/05/12 21:46:11;;;;;;;1.17;1.08;;;;;;;;;;8157716;28;20037;-72
2023/05/12 21:50:11;;;;;;;1.42;1.33;;;;;;;;;;8150796;28;20039;-72
2023/05/12 21:54:11;;;;;;;1.20;1.10;;;;;;;;;;8157047;28;20097;-72
2023/05/12 21:58:11;;;;;;;1.40;1.30;;;;;;;;;;8152261;28;20458;-73
2023/05/12 22:02:12;;;;;;;3.22;1.40;;;;;;;;;;8153147;28;20334;-72
2023/05/12 22:06:12;;;;;;;4.25;2.20;;;;;;;;;;8157614;28;20110;-72
2023/05/12 22:10:12;;;;;;;3.33;2.05;;;;;;;;;;8156951;28;20034;-72
2023/05/12 22:14:12;;;;;;;7.75;2.05;;;;;;;;;;8156059;28;20039;-72
2023/05/12 22:18:13;;;;;;;1.75;1.63;;;;;;;;;;8161789;28;20032;-72
2023/05/12 22:22:13;;;;;;;5.85;1.48;;;;;;;;;;8171841;28;20149;-72
2023/05/12 22:26:13;;;;;;;4.10;1.67;;;;;;;;;;8157322;28;20102;-72
2023/05/12 22:30:14;;;;;;;2.95;1.65;;;;;;;;;;8156188;28;20282;-72
2023/05/12 22:34:14;;;;;;;2.67;1.80;;;;;;;;;;8161952;28;20130;-72
2023/05/12 22:38:14;;;;;;;1.98;1.30;;;;;;;;;;8157659;28;21271;-72
2023/05/12 22:42:14;;;;;;;1.63;1.45;;;;;;;;;;8156796;28;20738;-72
2023/05/12 22:46:14;;;;;;;1.83;1.73;;;;;;;;;;8158019;28;20046;-72
2023/05/12 22:50:15;;;;;;;3.42;1.45;;;;;;;;;;8157154;28;20515;-72
2023/05/12 22:54:15;;;;;;;4.15;1.60;;;;;;;;;;8156303;28;20026;-71
2023/05/12 22:58:15;;;;;;;5.13;1.83;;;;;;;;;;8158538;28;20027;-72
2023/05/12 23:02:15;;;;;;;1.88;1.77;;;;;;;;;;8159655;28;20054;-72
2023/05/12 23:06:16;;;;;;;4.28;1.67;;;;;;;;;;8164253;28;20058;-72
2023/05/12 23:10:16;;;;;;;1.50;1.40;;;;;;;;;;8156794;28;20039;-72
2023/05/12 23:14:16;;;;;;;2.30;1.35;;;;;;;;;;8157813;28;20036;-72
2023/05/12 23:18:18;;;;;;;1.52;1.40;;;;;;;;;;8165793;28;20035;-72
2023/05/12 23:22:18;;;;;;;3.90;1.25;;;;;;;;;;8166422;29;20034;-72
2023/05/12 23:26:18;;;;;;;2.75;1.60;;;;;;;;;;8154482;28;20058;-72
2023/05/12 23:30:18;;;;;;;4.07;1.77;;;;;;;;;;8157049;28;20129;-72
2023/05/12 23:34:19;;;;;;;1.30;1.20;;;;;;;;;;8187589;28;20133;-72
2023/05/12 23:38:19;;;;;;;3.65;2.08;;;;;;;;;;8184466;28;20478;-72
2023/05/12 23:42:19;;;;;;;5.32;1.90;;;;;;;;;;8197406;28;20043;-72
2023/05/12 23:46:19;;;;;;;6.35;1.90;;;;;;;;;;8188328;28;20035;-72
2023/05/12 23:50:20;;;;;;;2.75;1.95;;;;;;;;;;8157562;28;20585;-71
2023/05/12 23:54:20;;;;;;;3.53;1.38;;;;;;;;;;8154619;29;20027;-71
2023/05/12 23:58:20;;;;;;;3.03;1.50;;;;;;;;;;8154591;28;20571;-73
